<?xml version="1.0" encoding="utf-8"?>
<gpx xmlns:xsi="http://www.w3.org/2001/XMLSchema-instance" xmlns:xsd="http://www.w3.org/2001/XMLSchema" version="1.1" creator="Shapelink.com" xmlns="http://www.topografix.com/GPX/1/1" xmlns:gpxtpx="http://www.garmin.com/xmlschemas/TrackPointExtension/v1">
  <metadata>
    <name>Simning 1.60 km, 2016-04-15</name>
    <desc></desc>
    <author><name>Stefan Östlund</name></author> 
    <time>2016-04-15T18:15:12Z</time>
  </metadata>
  <trk>
    <name>Simning 1.60 km, 2016-04-15</name>
    <trkseg>
      <trkpt lat="28.227450960965" lon="-13.98753199458">
        <ele>0</ele>
        <time>2016-04-15T18:15:12Z</time>
      </trkpt>
      <trkpt lat="28.227408883827" lon="-13.987345245848">
        <ele>0</ele>
        <time>2016-04-15T18:15:39Z</time>
      </trkpt>
      <trkpt lat="28.227143931968" lon="-13.986896059827">
        <ele>0</ele>
        <time>2016-04-15T18:16:34Z</time>
      </trkpt>
      <trkpt lat="28.22693505502" lon="-13.986451651489">
        <ele>0</ele>
        <time>2016-04-15T18:17:20Z</time>
      </trkpt>
      <trkpt lat="28.226701116191" lon="-13.986003052201">
        <ele>0</ele>
        <time>2016-04-15T18:18:13Z</time>
      </trkpt>
      <trkpt lat="28.225995946944" lon="-13.986750382405">
        <ele>0</ele>
        <time>2016-04-15T18:22:31Z</time>
      </trkpt>
      <trkpt lat="28.225922689138" lon="-13.987138380556">
        <ele>0</ele>
        <time>2016-04-15T18:22:45Z</time>
      </trkpt>
      <trkpt lat="28.22599292946" lon="-13.987492012917">
        <ele>0</ele>
        <time>2016-04-15T18:23:09Z</time>
      </trkpt>
      <trkpt lat="28.225609373716" lon="-13.9871950422">
        <ele>0</ele>
        <time>2016-04-15T18:23:51Z</time>
      </trkpt>
      <trkpt lat="28.225328580066" lon="-13.987591589889">
        <ele>0</ele>
        <time>2016-04-15T18:24:53Z</time>
      </trkpt>
      <trkpt lat="28.223926372015" lon="-13.989373078915">
        <ele>0</ele>
        <time>2016-04-15T18:31:31Z</time>
      </trkpt>
      <trkpt lat="28.223818580781" lon="-13.989411887112">
        <ele>0</ele>
        <time>2016-04-15T18:31:40Z</time>
      </trkpt>
      <trkpt lat="28.223660581966" lon="-13.989472320611">
        <ele>0</ele>
        <time>2016-04-15T18:31:53Z</time>
      </trkpt>
      <trkpt lat="28.223611044937" lon="-13.989591511229">
        <ele>0</ele>
        <time>2016-04-15T18:32:16Z</time>
      </trkpt>
      <trkpt lat="28.22416148431" lon="-13.990175981116">
        <ele>0</ele>
        <time>2016-04-15T18:35:19Z</time>
      </trkpt>
      <trkpt lat="28.223882786135" lon="-13.989247266596">
        <ele>0</ele>
        <time>2016-04-15T18:35:56Z</time>
      </trkpt>
      <trkpt lat="28.224236250858" lon="-13.988921043048">
        <ele>0</ele>
        <time>2016-04-15T18:36:48Z</time>
      </trkpt>
      <trkpt lat="28.224494664835" lon="-13.98853698439">
        <ele>0</ele>
        <time>2016-04-15T18:37:35Z</time>
      </trkpt>
      <trkpt lat="28.224701697765" lon="-13.988238504931">
        <ele>0</ele>
        <time>2016-04-15T18:38:31Z</time>
      </trkpt>
      <trkpt lat="28.225030100607" lon="-13.987821673044">
        <ele>0</ele>
        <time>2016-04-15T18:39:20Z</time>
      </trkpt>
      <trkpt lat="28.225280970874" lon="-13.98753953829">
        <ele>0</ele>
        <time>2016-04-15T18:40:20Z</time>
      </trkpt>
      <trkpt lat="28.225657821098" lon="-13.987283974159">
        <ele>0</ele>
        <time>2016-04-15T18:41:23Z</time>
      </trkpt>
      <trkpt lat="28.226052943864" lon="-13.986919361509">
        <ele>0</ele>
        <time>2016-04-15T18:42:21Z</time>
      </trkpt>
      <trkpt lat="28.226263245735" lon="-13.986609231209">
        <ele>0</ele>
        <time>2016-04-15T18:43:13Z</time>
      </trkpt>
      <trkpt lat="28.22610440873" lon="-13.986099108775">
        <ele>0</ele>
        <time>2016-04-15T18:44:13Z</time>
      </trkpt>
      <trkpt lat="28.22655786952" lon="-13.985940942322">
        <ele>0</ele>
        <time>2016-04-15T18:45:04Z</time>
      </trkpt>
      <trkpt lat="28.226815445307" lon="-13.986279822539">
        <ele>0</ele>
        <time>2016-04-15T18:48:09Z</time>
      </trkpt>
      <trkpt lat="28.226938323961" lon="-13.986687350517">
        <ele>0</ele>
        <time>2016-04-15T18:49:12Z</time>
      </trkpt>
      <trkpt lat="28.227203108182" lon="-13.987135865986">
        <ele>0</ele>
        <time>2016-04-15T18:50:14Z</time>
      </trkpt>
      <trkpt lat="28.227457917942" lon="-13.987651771931">
        <ele>0</ele>
        <time>2016-04-15T18:51:13Z</time>
      </trkpt>
      <trkpt lat="28.227851867242" lon="-13.987875736299">
        <ele>0</ele>
        <time>2016-04-15T18:52:25Z</time>
      </trkpt>
    </trkseg>
  </trk>
</gpx>